»·PEaware :: CREEP33 KEND-KEND

CREEP33 :: KEND-KEND

FLIGHT INFORMATION

Flight Status: Arrived
Operator: Unknown
More flights by this operator :: More flights under this callsign
Pilot: B. L. (21551)
Aircraft: BEECH AIRCRAFT T-6A TEXAN
(TEX2)
More flights by this aircraft type
Origin: KEND Vance AFB
United States
Destination: KEND Vance AFB
United States
More flights between these airports :: More routes between these airports
Route: EH END5
File this flight plan on PilotEdge
Remarks:
Altitude:
(Current/Filed)
null
Speed:
(Current/Filed)
0kts
Departed: 23-Feb-21 06:32 AM
Arrived: 23-Feb-21 06:59 AM
Distance/Time
Traveled:
1nm/0:27
Distance/Time
To Go:
Arrived

Flight Plot

Page will automatically refresh every two minutes.

Flight plan parsing failed; only flown route is shown


Map Options




Map Legend


Flown Route
Filed Route
Departure Airport
Arrival Airport
Navaid (VOR, NDB)
Fix

Horizontal Profiles

Position Reports

Time Latitude Longitude Heading Altitude Ground
Speed
23-Feb-21 06:06 36.333580 -97.910081 270 1291ft 0kts
23-Feb-21 06:07 36.333580 -97.910081 270 1291ft 0kts
23-Feb-21 06:08 36.333580 -97.910081 270 1291ft 0kts
23-Feb-21 06:09 36.333580 -97.910081 270 1291ft 0kts
23-Feb-21 06:10 36.333580 -97.910081 270 1291ft 0kts
23-Feb-21 06:19 36.333580 -97.910081 270 1291ft 0kts
23-Feb-21 06:20 36.333580 -97.910081 270 1291ft 0kts
23-Feb-21 06:21 36.333580 -97.910081 270 1291ft 0kts
23-Feb-21 06:22 36.333580 -97.910081 270 1291ft 0kts
23-Feb-21 06:23 36.333580 -97.910081 270 1291ft 0kts
23-Feb-21 06:23 36.333580 -97.910081 270 1291ft 0kts
23-Feb-21 06:25 36.333585 -97.910121 286 1291ft 1kts
23-Feb-21 06:26 36.333407 -97.910644 225 1291ft 13kts
23-Feb-21 06:26 36.333429 -97.911087 354 1290ft 0kts
23-Feb-21 06:27 36.333429 -97.911087 354 1290ft 0kts
23-Feb-21 06:28 36.333429 -97.911087 354 1290ft 0kts
23-Feb-21 06:30 36.333429 -97.911087 354 1290ft 0kts
23-Feb-21 06:31 36.333429 -97.911087 354 1290ft 0kts
23-Feb-21 06:31 36.341509 -97.911084 0 1388ft 122kts
23-Feb-21 06:33 36.399839 -97.899396 11 3425ft 208kts
23-Feb-21 06:33 36.447665 -97.882950 20 5027ft 241kts
23-Feb-21 06:34 36.430287 -97.813776 146 4921ft 258kts
23-Feb-21 06:35 36.365151 -97.799213 173 6934ft 214kts
23-Feb-21 06:36 36.309209 -97.781661 165 9269ft 237kts
23-Feb-21 06:37 36.251529 -97.730345 127 8993ft 270kts
23-Feb-21 06:38 36.208602 -97.655625 142 8958ft 250kts
23-Feb-21 06:39 36.168731 -97.592558 107 9068ft 242kts
23-Feb-21 06:40 36.218924 -97.569037 303 8940ft 235kts
23-Feb-21 06:41 36.203240 -97.567701 19 8946ft 230kts
23-Feb-21 06:42 36.191509 -97.573868 127 8918ft 214kts
23-Feb-21 06:43 36.155873 -97.508986 124 7845ft 238kts
23-Feb-21 06:44 36.149555 -97.432063 47 7244ft 243kts
23-Feb-21 06:45 36.171866 -97.476367 258 6956ft 233kts
23-Feb-21 06:46 36.192574 -97.543924 333 7050ft 253kts
23-Feb-21 06:47 36.258500 -97.578618 332 6974ft 258kts
23-Feb-21 06:48 36.323431 -97.615433 331 7012ft 258kts
23-Feb-21 06:49 36.368353 -97.677264 295 6962ft 250kts
23-Feb-21 06:50 36.379915 -97.759087 254 6046ft 235kts
23-Feb-21 06:51 36.332601 -97.798877 185 5471ft 246kts
23-Feb-21 06:52 36.265212 -97.804557 189 4988ft 242kts
23-Feb-21 06:53 36.203060 -97.827588 253 2849ft 229kts
23-Feb-21 06:54 36.205089 -97.903055 299 2348ft 214kts
23-Feb-21 06:55 36.259555 -97.907552 358 1762ft 175kts
23-Feb-21 06:56 36.297401 -97.908993 355 1776ft 124kts
23-Feb-21 06:57 36.328499 -97.910969 355 1380ft 92kts
23-Feb-21 06:58 36.341093 -97.910022 88 1284ft 0kts
23-Feb-21 06:59 36.341093 -97.910022 88 1284ft 0kts
23-Feb-21 07:00 36.346970 -97.909981 219 1279ft 0kts
23-Feb-21 07:01 36.346970 -97.909981 219 1279ft 0kts
23-Feb-21 07:02 36.346970 -97.909981 219 1279ft 0kts
23-Feb-21 07:03 36.346970 -97.909981 219 1279ft 0kts
23-Feb-21 07:04 36.346970 -97.909981 219 1279ft 0kts
23-Feb-21 07:05 36.346970 -97.909981 219 1279ft 0kts
23-Feb-21 07:06 36.346970 -97.909981 219 1279ft 0kts
23-Feb-21 07:07 36.346970 -97.909981 219 1279ft 0kts
23-Feb-21 07:08 36.346970 -97.909981 219 1279ft 0kts
23-Feb-21 07:09 36.346970 -97.909981 219 1279ft 0kts
23-Feb-21 07:10 36.346970 -97.909981 219 1279ft 0kts
23-Feb-21 07:11 36.346970 -97.909981 219 1279ft 0kts
23-Feb-21 07:12 36.346970 -97.909981 219 1279ft 0kts

Navigation Log

Ident Type
Flight plan parsing failed, navigation log unavailable